Hales Location, New Hampshire
Current Conditions -  °F | °C
As of 7:54 AM on Thursday 27 Nov 2014 (Local Time) from KIZG Reporting Station
NA  
Wind Chill: 24°   Ceiling: NA
Heat Index: 31°   Visibility: 10mi
Dew Point: 24°   Wind: 7mph
Humidity: 76%   Direction: 340°NNW
Pressure: 29.86"   Gusts: NA
Location:  44.0406°N, 71.0915°W
Report Text: KIZG 271254Z AUTO 34006KT 10SM M01/M04 A2986 RMK AO2 SLP116 T10061044 $
Loading
Personal Weather Stations






























Interactive Weather Map New forecast layout! Learn more

10-Day Weather Forecast

Advertisements
Track Severe Weather on mobile